sensor_id;sensor_type;location;lat;lon;timestamp;temperature;humidity
46085;DHT22;31823;47.032;8.310;2023-05-27T00:00:56;14.10;99.90
46085;DHT22;31823;47.032;8.310;2023-05-27T00:03:21;14.10;99.90
46085;DHT22;31823;47.032;8.310;2023-05-27T00:05:47;14.10;99.90
46085;DHT22;31823;47.032;8.310;2023-05-27T00:08:12;14.10;99.90
46085;DHT22;31823;47.032;8.310;2023-05-27T00:10:38;14.10;99.90
46085;DHT22;31823;47.032;8.310;2023-05-27T00:13:03;14.10;99.90
46085;DHT22;31823;47.032;8.310;2023-05-27T00:15:29;14.00;99.90
46085;DHT22;31823;47.032;8.310;2023-05-27T00:17:57;14.10;99.90
46085;DHT22;31823;47.032;8.310;2023-05-27T00:20:23;14.00;99.90
46085;DHT22;31823;47.032;8.310;2023-05-27T00:22:50;14.00;99.90
46085;DHT22;31823;47.032;8.310;2023-05-27T00:25:16;14.00;99.90
46085;DHT22;31823;47.032;8.310;2023-05-27T00:27:46;13.90;99.90
46085;DHT22;31823;47.032;8.310;2023-05-27T00:30:11;13.90;99.90
46085;DHT22;31823;47.032;8.310;2023-05-27T00:32:37;13.90;99.90
46085;DHT22;31823;47.032;8.310;2023-05-27T00:35:02;13.90;99.90
46085;DHT22;31823;47.032;8.310;2023-05-27T00:37:28;13.90;99.90
46085;DHT22;31823;47.032;8.310;2023-05-27T00:39:54;13.80;99.90
46085;DHT22;31823;47.032;8.310;2023-05-27T00:42:20;13.70;99.90
46085;DHT22;31823;47.032;8.310;2023-05-27T00:44:46;13.70;99.90
46085;DHT22;31823;47.032;8.310;2023-05-27T00:47:11;13.70;99.90
46085;DHT22;31823;47.032;8.310;2023-05-27T00:49:38;13.80;99.90
46085;DHT22;31823;47.032;8.310;2023-05-27T00:52:04;13.70;99.90
46085;DHT22;31823;47.032;8.310;2023-05-27T00:54:30;13.60;99.90
46085;DHT22;31823;47.032;8.310;2023-05-27T00:56:57;13.60;99.90
46085;DHT22;31823;47.032;8.310;2023-05-27T00:59:23;13.70;99.90
46085;DHT22;31823;47.032;8.310;2023-05-27T01:01:48;13.70;99.90
46085;DHT22;31823;47.032;8.310;2023-05-27T01:04:15;13.70;99.90
46085;DHT22;31823;47.032;8.310;2023-05-27T01:12:51;13.60;99.90
46085;DHT22;31823;47.032;8.310;2023-05-27T01:15:20;13.60;99.90
46085;DHT22;31823;47.032;8.310;2023-05-27T01:17:47;13.50;99.90
46085;DHT22;31823;47.032;8.310;2023-05-27T01:20:14;13.50;99.90
46085;DHT22;31823;47.032;8.310;2023-05-27T01:22:43;13.50;99.90
46085;DHT22;31823;47.032;8.310;2023-05-27T01:25:10;13.60;99.90
46085;DHT22;31823;47.032;8.310;2023-05-27T01:27:35;13.40;99.90
46085;DHT22;31823;47.032;8.310;2023-05-27T01:30:02;13.40;99.90
46085;DHT22;31823;47.032;8.310;2023-05-27T01:32:31;13.40;99.90
46085;DHT22;31823;47.032;8.310;2023-05-27T01:37:37;13.40;99.90
46085;DHT22;31823;47.032;8.310;2023-05-27T01:40:05;13.40;99.90
46085;DHT22;31823;47.032;8.310;2023-05-27T01:42:36;13.40;99.90
46085;DHT22;31823;47.032;8.310;2023-05-27T01:45:05;13.30;99.90
46085;DHT22;31823;47.032;8.310;2023-05-27T01:47:31;13.30;99.90
46085;DHT22;31823;47.032;8.310;2023-05-27T01:49:57;13.30;99.90
46085;DHT22;31823;47.032;8.310;2023-05-27T01:52:23;13.30;99.90
46085;DHT22;31823;47.032;8.310;2023-05-27T01:54:48;13.30;99.90
46085;DHT22;31823;47.032;8.310;2023-05-27T01:57:14;13.20;99.90
46085;DHT22;31823;47.032;8.310;2023-05-27T01:59:40;13.20;99.90
46085;DHT22;31823;47.032;8.310;2023-05-27T02:02:06;13.20;99.90
46085;DHT22;31823;47.032;8.310;2023-05-27T02:04:31;13.20;99.90
46085;DHT22;31823;47.032;8.310;2023-05-27T02:06:57;13.20;99.90
46085;DHT22;31823;47.032;8.310;2023-05-27T02:09:22;13.10;99.90
46085;DHT22;31823;47.032;8.310;2023-05-27T02:11:48;13.00;99.90
46085;DHT22;31823;47.032;8.310;2023-05-27T02:14:14;13.00;99.90
46085;DHT22;31823;47.032;8.310;2023-05-27T02:16:39;13.00;99.90
46085;DHT22;31823;47.032;8.310;2023-05-27T02:19:05;12.90;99.90
46085;DHT22;31823;47.032;8.310;2023-05-27T02:21:31;12.90;99.90
46085;DHT22;31823;47.032;8.310;2023-05-27T02:23:57;12.90;99.90
46085;DHT22;31823;47.032;8.310;2023-05-27T02:26:23;12.90;99.90
46085;DHT22;31823;47.032;8.310;2023-05-27T02:28:48;12.90;99.90
46085;DHT22;31823;47.032;8.310;2023-05-27T02:31:14;12.90;99.90
46085;DHT22;31823;47.032;8.310;2023-05-27T02:33:40;12.90;99.90
46085;DHT22;31823;47.032;8.310;2023-05-27T02:36:06;12.90;99.90
46085;DHT22;31823;47.032;8.310;2023-05-27T02:38:32;12.80;99.90
46085;DHT22;31823;47.032;8.310;2023-05-27T02:40:58;12.90;99.90
46085;DHT22;31823;47.032;8.310;2023-05-27T02:43:23;12.80;99.90
46085;DHT22;31823;47.032;8.310;2023-05-27T02:45:49;12.80;99.90
46085;DHT22;31823;47.032;8.310;2023-05-27T02:48:14;12.70;99.90
46085;DHT22;31823;47.032;8.310;2023-05-27T02:50:40;12.70;99.90
46085;DHT22;31823;47.032;8.310;2023-05-27T02:53:05;12.70;99.90
46085;DHT22;31823;47.032;8.310;2023-05-27T02:55:31;12.80;99.90
46085;DHT22;31823;47.032;8.310;2023-05-27T02:57:56;12.70;99.90
46085;DHT22;31823;47.032;8.310;2023-05-27T03:00:22;12.60;99.90
46085;DHT22;31823;47.032;8.310;2023-05-27T03:02:47;12.60;99.90
46085;DHT22;31823;47.032;8.310;2023-05-27T03:05:13;12.60;99.90
46085;DHT22;31823;47.032;8.310;2023-05-27T03:07:39;12.70;99.90
46085;DHT22;31823;47.032;8.310;2023-05-27T03:10:07;12.60;99.90
46085;DHT22;31823;47.032;8.310;2023-05-27T03:12:33;12.60;99.90
46085;DHT22;31823;47.032;8.310;2023-05-27T03:14:58;12.60;99.90
46085;DHT22;31823;47.032;8.310;2023-05-27T03:17:24;12.60;99.90
46085;DHT22;31823;47.032;8.310;2023-05-27T03:19:50;12.60;99.90
46085;DHT22;31823;47.032;8.310;2023-05-27T03:22:16;12.50;99.90
46085;DHT22;31823;47.032;8.310;2023-05-27T03:24:42;12.40;99.90
46085;DHT22;31823;47.032;8.310;2023-05-27T03:27:07;12.40;99.90
46085;DHT22;31823;47.032;8.310;2023-05-27T03:29:33;12.30;99.90
46085;DHT22;31823;47.032;8.310;2023-05-27T03:31:58;12.40;99.90
46085;DHT22;31823;47.032;8.310;2023-05-27T03:34:24;12.40;99.90
46085;DHT22;31823;47.032;8.310;2023-05-27T03:36:50;12.40;99.90
46085;DHT22;31823;47.032;8.310;2023-05-27T03:39:16;12.40;99.90
46085;DHT22;31823;47.032;8.310;2023-05-27T03:41:46;12.30;99.90
46085;DHT22;31823;47.032;8.310;2023-05-27T03:44:12;12.30;99.90
46085;DHT22;31823;47.032;8.310;2023-05-27T03:46:37;12.30;99.90
46085;DHT22;31823;47.032;8.310;2023-05-27T03:49:03;12.20;99.90
46085;DHT22;31823;47.032;8.310;2023-05-27T03:51:28;12.30;99.90
46085;DHT22;31823;47.032;8.310;2023-05-27T03:53:54;12.20;99.90
46085;DHT22;31823;47.032;8.310;2023-05-27T03:56:19;12.30;99.90
46085;DHT22;31823;47.032;8.310;2023-05-27T03:58:45;12.30;99.90
46085;DHT22;31823;47.032;8.310;2023-05-27T04:01:11;12.30;99.90
46085;DHT22;31823;47.032;8.310;2023-05-27T04:03:37;12.20;99.90
46085;DHT22;31823;47.032;8.310;2023-05-27T04:06:05;12.30;99.90
46085;DHT22;31823;47.032;8.310;2023-05-27T04:08:31;12.30;99.90
46085;DHT22;31823;47.032;8.310;2023-05-27T04:10:57;12.20;99.90
46085;DHT22;31823;47.032;8.310;2023-05-27T04:13:22;12.30;99.90
46085;DHT22;31823;47.032;8.310;2023-05-27T04:15:48;12.30;99.90
46085;DHT22;31823;47.032;8.310;2023-05-27T04:18:14;12.20;99.90
46085;DHT22;31823;47.032;8.310;2023-05-27T04:20:40;12.20;99.90
46085;DHT22;31823;47.032;8.310;2023-05-27T04:23:08;12.30;99.90
46085;DHT22;31823;47.032;8.310;2023-05-27T04:25:34;12.20;99.90
46085;DHT22;31823;47.032;8.310;2023-05-27T04:28:00;12.30;99.90
46085;DHT22;31823;47.032;8.310;2023-05-27T04:30:30;12.30;99.90
46085;DHT22;31823;47.032;8.310;2023-05-27T04:32:55;12.30;99.90
46085;DHT22;31823;47.032;8.310;2023-05-27T04:35:21;12.30;99.90
46085;DHT22;31823;47.032;8.310;2023-05-27T04:37:47;12.30;99.90
46085;DHT22;31823;47.032;8.310;2023-05-27T04:40:13;12.30;99.90
46085;DHT22;31823;47.032;8.310;2023-05-27T04:42:39;12.30;99.90
46085;DHT22;31823;47.032;8.310;2023-05-27T04:45:05;12.20;99.90
46085;DHT22;31823;47.032;8.310;2023-05-27T04:47:32;12.30;99.90
46085;DHT22;31823;47.032;8.310;2023-05-27T04:49:58;12.30;99.90
46085;DHT22;31823;47.032;8.310;2023-05-27T04:52:27;12.40;99.90
46085;DHT22;31823;47.032;8.310;2023-05-27T04:54:52;12.40;99.90
46085;DHT22;31823;47.032;8.310;2023-05-27T04:57:20;12.40;99.90
46085;DHT22;31823;47.032;8.310;2023-05-27T04:59:46;12.50;99.90
46085;DHT22;31823;47.032;8.310;2023-05-27T05:02:25;12.50;99.90
46085;DHT22;31823;47.032;8.310;2023-05-27T05:04:52;12.50;99.90
46085;DHT22;31823;47.032;8.310;2023-05-27T05:07:18;12.50;99.90
46085;DHT22;31823;47.032;8.310;2023-05-27T05:09:46;12.60;99.90
46085;DHT22;31823;47.032;8.310;2023-05-27T05:12:12;12.70;99.90
46085;DHT22;31823;47.032;8.310;2023-05-27T05:14:38;12.70;99.90
46085;DHT22;31823;47.032;8.310;2023-05-27T05:17:04;12.80;99.90
46085;DHT22;31823;47.032;8.310;2023-05-27T05:19:29;12.70;99.90
46085;DHT22;31823;47.032;8.310;2023-05-27T05:21:55;12.80;99.90
46085;DHT22;31823;47.032;8.310;2023-05-27T05:24:21;12.80;99.90
46085;DHT22;31823;47.032;8.310;2023-05-27T05:26:47;12.90;99.90
46085;DHT22;31823;47.032;8.310;2023-05-27T05:29:12;12.80;99.90
46085;DHT22;31823;47.032;8.310;2023-05-27T05:31:38;12.90;99.90
46085;DHT22;31823;47.032;8.310;2023-05-27T05:34:03;12.90;99.90
46085;DHT22;31823;47.032;8.310;2023-05-27T05:36:35;13.00;99.90
46085;DHT22;31823;47.032;8.310;2023-05-27T05:39:00;13.10;99.90
46085;DHT22;31823;47.032;8.310;2023-05-27T05:41:26;13.30;99.90
46085;DHT22;31823;47.032;8.310;2023-05-27T05:43:51;13.40;99.90
46085;DHT22;31823;47.032;8.310;2023-05-27T05:46:17;13.40;99.90
46085;DHT22;31823;47.032;8.310;2023-05-27T05:48:42;13.30;99.90
46085;DHT22;31823;47.032;8.310;2023-05-27T05:51:08;13.60;99.90
46085;DHT22;31823;47.032;8.310;2023-05-27T05:53:33;13.60;99.90
46085;DHT22;31823;47.032;8.310;2023-05-27T05:55:59;13.60;99.90
46085;DHT22;31823;47.032;8.310;2023-05-27T05:58:25;13.80;99.90
46085;DHT22;31823;47.032;8.310;2023-05-27T06:00:50;13.80;99.90
46085;DHT22;31823;47.032;8.310;2023-05-27T06:03:16;13.70;99.90
46085;DHT22;31823;47.032;8.310;2023-05-27T06:05:42;13.80;99.90
46085;DHT22;31823;47.032;8.310;2023-05-27T06:08:08;14.10;99.90
46085;DHT22;31823;47.032;8.310;2023-05-27T06:10:34;14.30;99.90
46085;DHT22;31823;47.032;8.310;2023-05-27T06:13:00;14.50;99.90
46085;DHT22;31823;47.032;8.310;2023-05-27T06:15:26;14.90;99.90
46085;DHT22;31823;47.032;8.310;2023-05-27T06:17:53;15.00;99.90
46085;DHT22;31823;47.032;8.310;2023-05-27T06:20:19;15.00;99.90
46085;DHT22;31823;47.032;8.310;2023-05-27T06:22:44;15.10;99.90
46085;DHT22;31823;47.032;8.310;2023-05-27T06:25:12;15.20;99.90
46085;DHT22;31823;47.032;8.310;2023-05-27T06:27:38;15.50;99.90
46085;DHT22;31823;47.032;8.310;2023-05-27T06:30:04;15.70;99.90
46085;DHT22;31823;47.032;8.310;2023-05-27T06:32:30;16.00;99.90
46085;DHT22;31823;47.032;8.310;2023-05-27T06:34:55;16.00;99.90
46085;DHT22;31823;47.032;8.310;2023-05-27T06:37:21;16.10;99.90
46085;DHT22;31823;47.032;8.310;2023-05-27T06:39:47;16.30;99.90
46085;DHT22;31823;47.032;8.310;2023-05-27T06:42:13;16.30;99.90
46085;DHT22;31823;47.032;8.310;2023-05-27T06:44:39;16.40;99.90
46085;DHT22;31823;47.032;8.310;2023-05-27T06:47:05;16.30;99.90
46085;DHT22;31823;47.032;8.310;2023-05-27T06:49:30;16.60;99.90
46085;DHT22;31823;47.032;8.310;2023-05-27T06:51:56;16.70;99.90
46085;DHT22;31823;47.032;8.310;2023-05-27T06:54:21;16.90;99.90
46085;DHT22;31823;47.032;8.310;2023-05-27T06:56:47;17.00;99.90
46085;DHT22;31823;47.032;8.310;2023-05-27T06:59:12;17.10;99.90
46085;DHT22;31823;47.032;8.310;2023-05-27T07:01:38;17.00;99.90
46085;DHT22;31823;47.032;8.310;2023-05-27T07:04:04;17.00;99.90
46085;DHT22;31823;47.032;8.310;2023-05-27T07:06:29;17.10;99.90
46085;DHT22;31823;47.032;8.310;2023-05-27T07:08:55;17.40;99.90
46085;DHT22;31823;47.032;8.310;2023-05-27T07:11:20;17.50;99.90
46085;DHT22;31823;47.032;8.310;2023-05-27T07:13:47;17.60;99.90
46085;DHT22;31823;47.032;8.310;2023-05-27T07:16:12;17.60;99.90
46085;DHT22;31823;47.032;8.310;2023-05-27T07:18:38;17.60;99.90
46085;DHT22;31823;47.032;8.310;2023-05-27T07:21:04;17.50;99.90
46085;DHT22;31823;47.032;8.310;2023-05-27T07:23:29;17.50;99.90
46085;DHT22;31823;47.032;8.310;2023-05-27T07:25:55;17.80;99.90
46085;DHT22;31823;47.032;8.310;2023-05-27T07:28:20;17.90;99.90
46085;DHT22;31823;47.032;8.310;2023-05-27T07:30:46;18.20;99.90
46085;DHT22;31823;47.032;8.310;2023-05-27T07:33:12;18.20;99.90
46085;DHT22;31823;47.032;8.310;2023-05-27T07:35:38;18.10;99.90
46085;DHT22;31823;47.032;8.310;2023-05-27T07:38:04;18.20;99.90
46085;DHT22;31823;47.032;8.310;2023-05-27T07:40:29;18.20;99.90
46085;DHT22;31823;47.032;8.310;2023-05-27T07:42:55;18.50;99.90
46085;DHT22;31823;47.032;8.310;2023-05-27T07:45:20;18.60;99.90
46085;DHT22;31823;47.032;8.310;2023-05-27T07:47:47;18.60;99.90
46085;DHT22;31823;47.032;8.310;2023-05-27T07:50:13;18.20;99.90
46085;DHT22;31823;47.032;8.310;2023-05-27T07:52:40;18.30;99.90
46085;DHT22;31823;47.032;8.310;2023-05-27T07:55:06;18.60;99.90
46085;DHT22;31823;47.032;8.310;2023-05-27T07:57:32;18.70;99.90
46085;DHT22;31823;47.032;8.310;2023-05-27T07:59:58;18.90;99.90
46085;DHT22;31823;47.032;8.310;2023-05-27T08:02:24;18.90;99.90
46085;DHT22;31823;47.032;8.310;2023-05-27T08:04:50;19.10;99.90
46085;DHT22;31823;47.032;8.310;2023-05-27T08:07:16;18.90;99.90
46085;DHT22;31823;47.032;8.310;2023-05-27T08:09:42;18.60;99.90
46085;DHT22;31823;47.032;8.310;2023-05-27T08:12:07;18.90;99.90
46085;DHT22;31823;47.032;8.310;2023-05-27T08:14:38;19.00;99.90
46085;DHT22;31823;47.032;8.310;2023-05-27T08:17:04;19.10;99.90
46085;DHT22;31823;47.032;8.310;2023-05-27T08:19:29;19.10;99.90
46085;DHT22;31823;47.032;8.310;2023-05-27T08:21:55;19.30;99.90
46085;DHT22;31823;47.032;8.310;2023-05-27T08:24:22;19.30;99.90
46085;DHT22;31823;47.032;8.310;2023-05-27T08:26:48;19.40;99.90
46085;DHT22;31823;47.032;8.310;2023-05-27T08:29:14;19.60;99.90
46085;DHT22;31823;47.032;8.310;2023-05-27T08:31:40;19.70;99.90
46085;DHT22;31823;47.032;8.310;2023-05-27T08:34:05;19.50;99.90
46085;DHT22;31823;47.032;8.310;2023-05-27T08:36:31;19.50;99.90
46085;DHT22;31823;47.032;8.310;2023-05-27T08:38:57;19.30;99.90
46085;DHT22;31823;47.032;8.310;2023-05-27T08:41:23;19.20;99.90
46085;DHT22;31823;47.032;8.310;2023-05-27T08:43:49;19.40;99.90
46085;DHT22;31823;47.032;8.310;2023-05-27T08:46:15;19.20;99.90
46085;DHT22;31823;47.032;8.310;2023-05-27T08:48:41;19.40;99.90
46085;DHT22;31823;47.032;8.310;2023-05-27T08:51:07;19.50;99.90
46085;DHT22;31823;47.032;8.310;2023-05-27T08:53:34;19.40;99.90
46085;DHT22;31823;47.032;8.310;2023-05-27T08:56:01;19.40;99.90
46085;DHT22;31823;47.032;8.310;2023-05-27T08:58:27;19.80;99.90
46085;DHT22;31823;47.032;8.310;2023-05-27T09:00:53;20.00;99.90
46085;DHT22;31823;47.032;8.310;2023-05-27T09:03:19;20.10;99.90
46085;DHT22;31823;47.032;8.310;2023-05-27T09:05:44;19.90;99.90
46085;DHT22;31823;47.032;8.310;2023-05-27T09:08:10;19.90;99.90
46085;DHT22;31823;47.032;8.310;2023-05-27T09:10:37;19.90;99.90
46085;DHT22;31823;47.032;8.310;2023-05-27T09:13:03;20.10;99.90
46085;DHT22;31823;47.032;8.310;2023-05-27T09:15:31;20.20;99.90
46085;DHT22;31823;47.032;8.310;2023-05-27T09:17:57;20.50;99.90
46085;DHT22;31823;47.032;8.310;2023-05-27T09:20:27;20.40;99.90
46085;DHT22;31823;47.032;8.310;2023-05-27T09:23:00;20.20;99.90
46085;DHT22;31823;47.032;8.310;2023-05-27T09:25:27;20.40;99.90
46085;DHT22;31823;47.032;8.310;2023-05-27T09:27:54;20.80;99.90
46085;DHT22;31823;47.032;8.310;2023-05-27T09:30:21;20.80;99.90
46085;DHT22;31823;47.032;8.310;2023-05-27T09:32:47;20.90;99.90
46085;DHT22;31823;47.032;8.310;2023-05-27T09:35:15;20.70;99.90
46085;DHT22;31823;47.032;8.310;2023-05-27T09:37:41;20.90;99.90
46085;DHT22;31823;47.032;8.310;2023-05-27T09:40:10;21.40;99.90
46085;DHT22;31823;47.032;8.310;2023-05-27T09:42:41;21.20;99.90
46085;DHT22;31823;47.032;8.310;2023-05-27T09:45:14;21.40;99.90
46085;DHT22;31823;47.032;8.310;2023-05-27T09:47:51;21.30;99.90
46085;DHT22;31823;47.032;8.310;2023-05-27T09:50:18;21.40;99.90
46085;DHT22;31823;47.032;8.310;2023-05-27T09:52:45;21.00;99.90
46085;DHT22;31823;47.032;8.310;2023-05-27T09:55:12;21.30;99.90
46085;DHT22;31823;47.032;8.310;2023-05-27T09:57:42;21.80;99.90
46085;DHT22;31823;47.032;8.310;2023-05-27T10:00:09;21.70;99.90
46085;DHT22;31823;47.032;8.310;2023-05-27T10:02:50;21.50;99.90
46085;DHT22;31823;47.032;8.310;2023-05-27T10:05:17;21.80;99.90
46085;DHT22;31823;47.032;8.310;2023-05-27T10:07:45;22.20;99.90
46085;DHT22;31823;47.032;8.310;2023-05-27T10:10:14;22.20;99.90
46085;DHT22;31823;47.032;8.310;2023-05-27T10:12:46;22.30;99.90
46085;DHT22;31823;47.032;8.310;2023-05-27T10:15:27;22.50;99.90
46085;DHT22;31823;47.032;8.310;2023-05-27T10:18:04;22.80;99.90
46085;DHT22;31823;47.032;8.310;2023-05-27T10:25:55;23.00;99.90
46085;DHT22;31823;47.032;8.310;2023-05-27T10:28:31;22.80;99.90
46085;DHT22;31823;47.032;8.310;2023-05-27T10:31:17;22.70;99.90
46085;DHT22;31823;47.032;8.310;2023-05-27T10:33:46;23.00;99.90
46085;DHT22;31823;47.032;8.310;2023-05-27T10:36:16;23.00;99.90
46085;DHT22;31823;47.032;8.310;2023-05-27T10:38:53;23.00;99.90
46085;DHT22;31823;47.032;8.310;2023-05-27T10:41:19;22.90;99.90
46085;DHT22;31823;47.032;8.310;2023-05-27T10:43:57;23.00;99.90
46085;DHT22;31823;47.032;8.310;2023-05-27T10:46:23;23.60;99.90
46085;DHT22;31823;47.032;8.310;2023-05-27T10:48:49;23.50;99.90
46085;DHT22;31823;47.032;8.310;2023-05-27T10:51:15;23.70;99.90
46085;DHT22;31823;47.032;8.310;2023-05-27T10:53:40;23.50;99.90
46085;DHT22;31823;47.032;8.310;2023-05-27T10:56:06;23.70;99.90
46085;DHT22;31823;47.032;8.310;2023-05-27T10:58:35;23.90;99.90
46085;DHT22;31823;47.032;8.310;2023-05-27T11:01:08;23.50;99.90
46085;DHT22;31823;47.032;8.310;2023-05-27T11:03:40;22.50;99.80
46085;DHT22;31823;47.032;8.310;2023-05-27T11:06:06;22.80;99.90
46085;DHT22;31823;47.032;8.310;2023-05-27T11:08:33;23.30;99.90
46085;DHT22;31823;47.032;8.310;2023-05-27T11:11:09;23.80;99.90
46085;DHT22;31823;47.032;8.310;2023-05-27T11:13:44;24.20;99.90
46085;DHT22;31823;47.032;8.310;2023-05-27T11:16:11;24.40;99.90
46085;DHT22;31823;47.032;8.310;2023-05-27T11:18:47;24.40;99.90
46085;DHT22;31823;47.032;8.310;2023-05-27T11:21:14;24.90;99.10
46085;DHT22;31823;47.032;8.310;2023-05-27T11:23:48;24.50;99.90
46085;DHT22;31823;47.032;8.310;2023-05-27T11:26:20;24.30;99.90
46085;DHT22;31823;47.032;8.310;2023-05-27T11:28:56;24.20;99.80
46085;DHT22;31823;47.032;8.310;2023-05-27T11:31:30;24.00;98.80
46085;DHT22;31823;47.032;8.310;2023-05-27T11:33:56;24.00;99.90
46085;DHT22;31823;47.032;8.310;2023-05-27T11:36:26;24.00;99.90
46085;DHT22;31823;47.032;8.310;2023-05-27T11:38:56;24.70;99.90
46085;DHT22;31823;47.032;8.310;2023-05-27T11:41:24;24.60;99.70
46085;DHT22;31823;47.032;8.310;2023-05-27T11:46:20;24.80;99.90
46085;DHT22;31823;47.032;8.310;2023-05-27T11:48:46;25.10;99.90
46085;DHT22;31823;47.032;8.310;2023-05-27T11:51:12;24.90;99.80
46085;DHT22;31823;47.032;8.310;2023-05-27T11:53:44;24.90;99.90
46085;DHT22;31823;47.032;8.310;2023-05-27T11:56:10;24.90;99.90
46085;DHT22;31823;47.032;8.310;2023-05-27T11:58:35;24.80;98.70
46085;DHT22;31823;47.032;8.310;2023-05-27T12:01:05;24.70;99.90
46085;DHT22;31823;47.032;8.310;2023-05-27T12:03:33;24.90;99.90
46085;DHT22;31823;47.032;8.310;2023-05-27T12:05:58;24.80;99.90
46085;DHT22;31823;47.032;8.310;2023-05-27T12:08:24;24.60;98.40
46085;DHT22;31823;47.032;8.310;2023-05-27T12:10:50;24.80;98.20
46085;DHT22;31823;47.032;8.310;2023-05-27T12:13:19;25.10;98.60
46085;DHT22;31823;47.032;8.310;2023-05-27T12:15:46;24.90;98.40
46085;DHT22;31823;47.032;8.310;2023-05-27T12:18:11;24.40;97.90
46085;DHT22;31823;47.032;8.310;2023-05-27T12:20:37;25.30;99.70
46085;DHT22;31823;47.032;8.310;2023-05-27T12:23:02;25.60;97.50
46085;DHT22;31823;47.032;8.310;2023-05-27T12:25:28;24.80;98.80
46085;DHT22;31823;47.032;8.310;2023-05-27T12:27:53;24.50;99.90
46085;DHT22;31823;47.032;8.310;2023-05-27T12:30:19;24.00;99.30
46085;DHT22;31823;47.032;8.310;2023-05-27T12:32:46;23.90;99.90
46085;DHT22;31823;47.032;8.310;2023-05-27T12:35:11;24.30;98.20
46085;DHT22;31823;47.032;8.310;2023-05-27T12:37:37;24.70;99.90
46085;DHT22;31823;47.032;8.310;2023-05-27T12:40:02;25.10;98.00
46085;DHT22;31823;47.032;8.310;2023-05-27T12:42:30;25.60;99.90
46085;DHT22;31823;47.032;8.310;2023-05-27T12:44:56;25.50;99.10
46085;DHT22;31823;47.032;8.310;2023-05-27T12:47:21;24.70;98.60
46085;DHT22;31823;47.032;8.310;2023-05-27T12:49:47;24.20;99.90
46085;DHT22;31823;47.032;8.310;2023-05-27T12:52:13;24.70;98.30
46085;DHT22;31823;47.032;8.310;2023-05-27T12:54:39;25.10;97.60
46085;DHT22;31823;47.032;8.310;2023-05-27T12:57:05;25.30;99.40
46085;DHT22;31823;47.032;8.310;2023-05-27T12:59:31;24.60;99.70
46085;DHT22;31823;47.032;8.310;2023-05-27T13:01:56;23.80;99.10
46085;DHT22;31823;47.032;8.310;2023-05-27T13:04:22;23.70;99.40
46085;DHT22;31823;47.032;8.310;2023-05-27T13:06:48;23.80;98.50
46085;DHT22;31823;47.032;8.310;2023-05-27T13:09:13;24.40;98.40
46085;DHT22;31823;47.032;8.310;2023-05-27T13:11:39;24.70;99.20
46085;DHT22;31823;47.032;8.310;2023-05-27T13:14:06;24.50;96.20
46085;DHT22;31823;47.032;8.310;2023-05-27T13:16:32;25.20;99.10
46085;DHT22;31823;47.032;8.310;2023-05-27T13:18:57;25.40;98.30
46085;DHT22;31823;47.032;8.310;2023-05-27T13:21:23;25.30;97.60
46085;DHT22;31823;47.032;8.310;2023-05-27T13:23:48;24.40;95.80
46085;DHT22;31823;47.032;8.310;2023-05-27T13:26:14;24.40;99.90
46085;DHT22;31823;47.032;8.310;2023-05-27T13:28:40;25.20;98.60
46085;DHT22;31823;47.032;8.310;2023-05-27T13:31:06;25.60;97.70
46085;DHT22;31823;47.032;8.310;2023-05-27T13:33:32;25.70;98.70
46085;DHT22;31823;47.032;8.310;2023-05-27T13:35:58;25.90;96.70
46085;DHT22;31823;47.032;8.310;2023-05-27T13:38:23;25.60;96.20
46085;DHT22;31823;47.032;8.310;2023-05-27T13:40:49;26.00;96.30
46085;DHT22;31823;47.032;8.310;2023-05-27T13:43:16;25.90;96.00
46085;DHT22;31823;47.032;8.310;2023-05-27T13:45:41;25.80;97.20
46085;DHT22;31823;47.032;8.310;2023-05-27T13:48:07;25.80;97.50
46085;DHT22;31823;47.032;8.310;2023-05-27T13:50:34;24.90;97.90
46085;DHT22;31823;47.032;8.310;2023-05-27T13:53:00;24.80;98.50
46085;DHT22;31823;47.032;8.310;2023-05-27T13:55:26;25.20;99.60
46085;DHT22;31823;47.032;8.310;2023-05-27T13:57:51;25.40;96.70
46085;DHT22;31823;47.032;8.310;2023-05-27T14:00:17;25.70;97.90
46085;DHT22;31823;47.032;8.310;2023-05-27T14:02:43;25.30;96.10
46085;DHT22;31823;47.032;8.310;2023-05-27T14:05:10;24.60;95.10
46085;DHT22;31823;47.032;8.310;2023-05-27T14:07:42;24.10;95.70
46085;DHT22;31823;47.032;8.310;2023-05-27T14:10:09;24.20;97.40
46085;DHT22;31823;47.032;8.310;2023-05-27T14:12:35;24.20;97.20
46085;DHT22;31823;47.032;8.310;2023-05-27T14:15:01;24.50;97.80
46085;DHT22;31823;47.032;8.310;2023-05-27T14:17:27;25.10;97.70
46085;DHT22;31823;47.032;8.310;2023-05-27T14:19:52;25.20;94.90
46085;DHT22;31823;47.032;8.310;2023-05-27T14:22:18;25.30;97.90
46085;DHT22;31823;47.032;8.310;2023-05-27T14:24:43;24.40;96.60
46085;DHT22;31823;47.032;8.310;2023-05-27T14:27:09;23.70;98.70
46085;DHT22;31823;47.032;8.310;2023-05-27T14:29:35;23.20;99.90
46085;DHT22;31823;47.032;8.310;2023-05-27T14:32:01;22.80;99.90
46085;DHT22;31823;47.032;8.310;2023-05-27T14:34:26;22.80;99.90
46085;DHT22;31823;47.032;8.310;2023-05-27T14:36:52;23.60;99.10
46085;DHT22;31823;47.032;8.310;2023-05-27T14:39:17;24.40;96.30
46085;DHT22;31823;47.032;8.310;2023-05-27T14:41:43;24.30;98.10
46085;DHT22;31823;47.032;8.310;2023-05-27T14:44:08;23.80;96.60
46085;DHT22;31823;47.032;8.310;2023-05-27T14:46:34;23.50;97.30
46085;DHT22;31823;47.032;8.310;2023-05-27T14:49:00;23.40;97.90
46085;DHT22;31823;47.032;8.310;2023-05-27T14:51:25;22.70;99.90
46085;DHT22;31823;47.032;8.310;2023-05-27T14:53:51;22.70;99.90
46085;DHT22;31823;47.032;8.310;2023-05-27T14:56:16;23.00;99.90
46085;DHT22;31823;47.032;8.310;2023-05-27T14:58:42;23.40;99.90
46085;DHT22;31823;47.032;8.310;2023-05-27T15:01:08;24.00;99.40
46085;DHT22;31823;47.032;8.310;2023-05-27T15:03:36;24.70;98.20
46085;DHT22;31823;47.032;8.310;2023-05-27T15:06:01;24.80;95.40
46085;DHT22;31823;47.032;8.310;2023-05-27T15:08:27;24.40;97.00
46085;DHT22;31823;47.032;8.310;2023-05-27T15:10:52;23.90;96.10
46085;DHT22;31823;47.032;8.310;2023-05-27T15:13:18;24.40;97.10
46085;DHT22;31823;47.032;8.310;2023-05-27T15:15:45;24.70;99.00
46085;DHT22;31823;47.032;8.310;2023-05-27T15:18:10;24.90;96.60
46085;DHT22;31823;47.032;8.310;2023-05-27T15:20:37;24.80;94.60
46085;DHT22;31823;47.032;8.310;2023-05-27T15:23:03;24.50;96.40
46085;DHT22;31823;47.032;8.310;2023-05-27T15:25:29;24.60;97.20
46085;DHT22;31823;47.032;8.310;2023-05-27T15:27:55;25.10;96.60
46085;DHT22;31823;47.032;8.310;2023-05-27T15:30:21;25.20;95.90
46085;DHT22;31823;47.032;8.310;2023-05-27T15:32:46;25.20;96.00
46085;DHT22;31823;47.032;8.310;2023-05-27T15:35:12;24.90;95.20
46085;DHT22;31823;47.032;8.310;2023-05-27T15:37:37;25.00;96.70
46085;DHT22;31823;47.032;8.310;2023-05-27T15:40:06;25.10;96.00
46085;DHT22;31823;47.032;8.310;2023-05-27T15:42:32;25.10;95.80